Pagina principale
METAR-TAF:

METAR-TAF

Aeroporti :

Aeroporto Internazionale di Città del Capo

Città del Capo, Sudafrica

latitudine: 33-59S, longitudine: 018-36E, altezza: 42 m

Osservazione

Il bollettino è stato emesso 37 minuti fa, alle 11:00 UTC
Vento 11 kt da sud/sud-ovest
Temperature 22°C
Umidità 43%
Pressione 1013 hPa
Visibilità 10 km o più
nessuna nube inferiore a 1500 m e nessun cumulonembo

METAR: FACT 201100Z 21011KT CAVOK 22/09 Q1013 NOSIG

Ora: 13:37 (11:37 UTC)

Previsione

Il bollettino è stato emesso 1 ora e 37 minuti fa, alle 10:00 UTC
Previsione valida dal 20 alle 12 UTC al 21 alle 18 UTC
Vento 18 kt da sud
Visibilità 10 km o più
nessuna nube inferiore a 1500 m e nessun cumulonembo
A partire da 21 alle 0300 UTC
Vento 12 kt da sud
Visibilità 10 km o più
Poco nuvoloso ad un'altezza di 3500 ft

TAF: FACT 201000Z 2012/2118 17018KT CAVOK TX24/2012Z TN14/2104Z FM210300 18012KT 9999 FEW035

Osservazioni e previsioni meteorologiche di più di 4000 aeroporti (messaggi METAR e TAF).

Le stazioni disponibili sono rappresentate dai dischi gialli e rossi sulla carta.

Puntare il mouse per vedere il nome della stazione.

Clicca sopra per visualizzare le osservazioni e previsioni meteorologiche.

Per cambiare la mappa : fare clic sui pulsanti verdi con una croce nera per ingrandire, il pulsante verde con un trattino per diminuire, o sulla freccia verde per le mappe adiacenti.


METAR-TAF: